Route Details

Aircraft Information
Group: Hub to Hub
Types: B744, MD11, B763, B762, B752, B738
Route Data
Distance: 392nm
Duration: 1h 44m
Origin METAR: KIAD 080052Z 17004KT 10SM BKN150 OVC200 09/00 A3015 RMK AO2 SLP211 T00940000
Dest. METAR: KSDF 080059Z 29007KT 5SM -RA BR BKN009 BKN030 OVC049 12/12 A3020 RMK AO2 P0000 T01220117
Freight Data
(for Feb 8, 2023)
Load Factor:
74%
Manifested Cargo: 137,812lbs
Financial History
Total Freight: 909,105lbs
Average Load: 0lbs/flt
Fuel Used: 138,239lbs
Avg. Fuel Used: 0lbs/flt
Fuel Expense: $149,625
Avg. Fuel Expense: $0
Avg. Fuel Cost: $0/lbs
Total Gross Income: $1,679,142
Pilot Pay: $1,760
Total Expenses: $252,487
Total Revenue: $1,273,518
Average Revenue: $0

Capitol Logistics 455




KIAD
Washington Dulles International Airport
Dulles, Virginia
KSDF
Muhammad Ali International Airport
Louisville, Kentucky

Activity Log

Date Flight Route Aircraft Duration
12/27/2022 CPX455 RNLDI4 OTTTO Q68 HVQ DCT UNCKL MAUDD6 MD11 1h 23m
12/24/2022 CPX455 RNLDI4 OTTTO Q68 HVQ DCT UNCKL MAUDD6 B744 1h 27m
11/07/2022 CPX455 RNLDI4 OTTTO Q68 HVQ DCT UNCKL MAUDD6 B752 1h 26m
07/14/2022 CPX455 RNLDI4 OTTTO Q68 HVQ UNCKL MAUDD6 B763 1h 11m
03/22/2021 CPX2219 RNLDI4 OTTTO Q68 HVQ UNCKL MAUDD6 B763 1h 25m
09/30/2020 CPX2219 RNLDI4 OTTTO Q68 HVQ UNCKL MAUDD6 B763 1h 41m
01/28/2020 CPX2219 RNLDI4 OTTTO Q68 HVQ UNCKL MAUDD6 B763 1h 34m
01/18/2020 CPX2219 RNLDI4 OTTTO Q68 HVQ UNCKL MAUDD6 B763 1h 44m
11/18/2019 CPX2219 RNLDI4 OTTTO Q68 HVQ UNCKL MAUDD6 B763 1h 31m
03/25/2018 CPX906 RNLDI4 OTTTO Q68 HVQ UNCKL MAUDD4 B744 1h 12m